sensor_id;sensor_type;location;lat;lon;timestamp;P1;durP1;ratioP1;P2;durP2;ratioP2
23716;SDS011;22094;52.130;5.598;2023-12-20T00:00:54;16.65;;;4.28;;
23716;SDS011;22094;52.130;5.598;2023-12-20T00:03:36;23.35;;;3.33;;
23716;SDS011;22094;52.130;5.598;2023-12-20T00:06:25;22.55;;;3.90;;
23716;SDS011;22094;52.130;5.598;2023-12-20T00:08:58;26.50;;;4.07;;
23716;SDS011;22094;52.130;5.598;2023-12-20T00:11:26;30.67;;;3.72;;
23716;SDS011;22094;52.130;5.598;2023-12-20T00:13:55;23.65;;;3.95;;
23716;SDS011;22094;52.130;5.598;2023-12-20T00:16:26;21.77;;;4.78;;
23716;SDS011;22094;52.130;5.598;2023-12-20T00:18:52;30.10;;;4.15;;
23716;SDS011;22094;52.130;5.598;2023-12-20T00:21:17;26.98;;;4.30;;
23716;SDS011;22094;52.130;5.598;2023-12-20T00:23:46;26.27;;;4.55;;
23716;SDS011;22094;52.130;5.598;2023-12-20T00:26:14;29.25;;;4.07;;
23716;SDS011;22094;52.130;5.598;2023-12-20T00:28:42;28.33;;;4.20;;
23716;SDS011;22094;52.130;5.598;2023-12-20T00:31:08;27.75;;;4.18;;
23716;SDS011;22094;52.130;5.598;2023-12-20T00:33:33;20.98;;;4.43;;
23716;SDS011;22094;52.130;5.598;2023-12-20T00:36:08;18.23;;;4.15;;
23716;SDS011;22094;52.130;5.598;2023-12-20T00:38:33;32.78;;;4.60;;
23716;SDS011;22094;52.130;5.598;2023-12-20T00:41:13;24.85;;;4.88;;
23716;SDS011;22094;52.130;5.598;2023-12-20T00:43:42;22.88;;;4.18;;
23716;SDS011;22094;52.130;5.598;2023-12-20T00:46:11;18.88;;;4.65;;
23716;SDS011;22094;52.130;5.598;2023-12-20T00:48:37;25.75;;;4.78;;
23716;SDS011;22094;52.130;5.598;2023-12-20T00:51:02;24.13;;;4.65;;
23716;SDS011;22094;52.130;5.598;2023-12-20T00:53:28;23.52;;;4.57;;
23716;SDS011;22094;52.130;5.598;2023-12-20T00:55:54;24.95;;;4.80;;
23716;SDS011;22094;52.130;5.598;2023-12-20T00:58:20;24.67;;;4.55;;
23716;SDS011;22094;52.130;5.598;2023-12-20T01:00:48;25.55;;;4.70;;
23716;SDS011;22094;52.130;5.598;2023-12-20T01:03:14;25.13;;;4.90;;
23716;SDS011;22094;52.130;5.598;2023-12-20T01:05:40;36.70;;;5.60;;
23716;SDS011;22094;52.130;5.598;2023-12-20T01:08:06;27.17;;;5.15;;
23716;SDS011;22094;52.130;5.598;2023-12-20T01:10:32;21.52;;;4.80;;
23716;SDS011;22094;52.130;5.598;2023-12-20T01:12:57;25.88;;;5.18;;
23716;SDS011;22094;52.130;5.598;2023-12-20T01:15:26;27.13;;;5.13;;
23716;SDS011;22094;52.130;5.598;2023-12-20T01:17:54;22.88;;;4.30;;
23716;SDS011;22094;52.130;5.598;2023-12-20T01:20:21;27.23;;;4.82;;
23716;SDS011;22094;52.130;5.598;2023-12-20T01:22:47;25.60;;;5.40;;
23716;SDS011;22094;52.130;5.598;2023-12-20T01:25:13;25.52;;;5.05;;
23716;SDS011;22094;52.130;5.598;2023-12-20T01:27:41;22.05;;;4.50;;
23716;SDS011;22094;52.130;5.598;2023-12-20T01:30:07;29.60;;;5.00;;
23716;SDS011;22094;52.130;5.598;2023-12-20T01:32:36;30.02;;;5.20;;
23716;SDS011;22094;52.130;5.598;2023-12-20T01:35:02;28.98;;;4.72;;
23716;SDS011;22094;52.130;5.598;2023-12-20T01:37:28;32.03;;;4.70;;
23716;SDS011;22094;52.130;5.598;2023-12-20T01:39:54;23.20;;;5.10;;
23716;SDS011;22094;52.130;5.598;2023-12-20T01:42:20;27.13;;;5.50;;
23716;SDS011;22094;52.130;5.598;2023-12-20T01:44:47;32.95;;;5.88;;
23716;SDS011;22094;52.130;5.598;2023-12-20T01:47:13;32.97;;;5.25;;
23716;SDS011;22094;52.130;5.598;2023-12-20T01:49:39;33.00;;;5.68;;
23716;SDS011;22094;52.130;5.598;2023-12-20T01:52:04;28.63;;;4.22;;
23716;SDS011;22094;52.130;5.598;2023-12-20T01:54:31;31.08;;;5.28;;
23716;SDS011;22094;52.130;5.598;2023-12-20T01:56:57;35.20;;;5.03;;
23716;SDS011;22094;52.130;5.598;2023-12-20T01:59:22;31.40;;;4.80;;
23716;SDS011;22094;52.130;5.598;2023-12-20T02:01:48;27.90;;;5.47;;
23716;SDS011;22094;52.130;5.598;2023-12-20T02:04:14;26.02;;;4.75;;
23716;SDS011;22094;52.130;5.598;2023-12-20T02:06:40;22.77;;;4.43;;
23716;SDS011;22094;52.130;5.598;2023-12-20T02:09:08;30.77;;;5.10;;
23716;SDS011;22094;52.130;5.598;2023-12-20T02:11:34;19.20;;;4.15;;
23716;SDS011;22094;52.130;5.598;2023-12-20T02:14:04;32.78;;;5.15;;
23716;SDS011;22094;52.130;5.598;2023-12-20T02:16:30;25.92;;;5.10;;
23716;SDS011;22094;52.130;5.598;2023-12-20T02:18:55;22.40;;;4.88;;
23716;SDS011;22094;52.130;5.598;2023-12-20T02:21:25;32.03;;;4.80;;
23716;SDS011;22094;52.130;5.598;2023-12-20T02:23:56;25.80;;;5.18;;
23716;SDS011;22094;52.130;5.598;2023-12-20T02:26:22;31.45;;;5.13;;
23716;SDS011;22094;52.130;5.598;2023-12-20T02:28:48;29.55;;;5.53;;
23716;SDS011;22094;52.130;5.598;2023-12-20T02:31:13;26.83;;;4.95;;
23716;SDS011;22094;52.130;5.598;2023-12-20T02:33:42;35.65;;;4.82;;
23716;SDS011;22094;52.130;5.598;2023-12-20T02:36:07;30.67;;;4.93;;
23716;SDS011;22094;52.130;5.598;2023-12-20T02:38:33;22.75;;;4.78;;
23716;SDS011;22094;52.130;5.598;2023-12-20T02:40:59;26.02;;;5.38;;
23716;SDS011;22094;52.130;5.598;2023-12-20T02:43:24;26.35;;;5.25;;
23716;SDS011;22094;52.130;5.598;2023-12-20T02:45:50;29.83;;;5.93;;
23716;SDS011;22094;52.130;5.598;2023-12-20T02:48:16;36.83;;;5.20;;
23716;SDS011;22094;52.130;5.598;2023-12-20T02:50:42;34.70;;;5.80;;
23716;SDS011;22094;52.130;5.598;2023-12-20T02:53:07;25.67;;;4.55;;
23716;SDS011;22094;52.130;5.598;2023-12-20T02:55:33;31.88;;;5.28;;
23716;SDS011;22094;52.130;5.598;2023-12-20T02:57:59;38.08;;;5.53;;
23716;SDS011;22094;52.130;5.598;2023-12-20T03:00:24;29.80;;;5.25;;
23716;SDS011;22094;52.130;5.598;2023-12-20T03:02:50;30.55;;;4.63;;
23716;SDS011;22094;52.130;5.598;2023-12-20T03:05:16;32.03;;;5.72;;
23716;SDS011;22094;52.130;5.598;2023-12-20T03:07:41;29.40;;;5.28;;
23716;SDS011;22094;52.130;5.598;2023-12-20T03:10:07;31.73;;;5.25;;
23716;SDS011;22094;52.130;5.598;2023-12-20T03:12:34;38.45;;;5.55;;
23716;SDS011;22094;52.130;5.598;2023-12-20T03:15:00;29.58;;;5.70;;
23716;SDS011;22094;52.130;5.598;2023-12-20T03:17:25;31.17;;;5.90;;
23716;SDS011;22094;52.130;5.598;2023-12-20T03:19:51;36.60;;;6.13;;
23716;SDS011;22094;52.130;5.598;2023-12-20T03:22:16;35.30;;;6.20;;
23716;SDS011;22094;52.130;5.598;2023-12-20T03:24:42;33.08;;;5.68;;
23716;SDS011;22094;52.130;5.598;2023-12-20T03:27:08;28.65;;;5.88;;
23716;SDS011;22094;52.130;5.598;2023-12-20T03:29:33;35.90;;;5.93;;
23716;SDS011;22094;52.130;5.598;2023-12-20T03:31:59;32.10;;;5.97;;
23716;SDS011;22094;52.130;5.598;2023-12-20T03:34:25;36.00;;;6.15;;
23716;SDS011;22094;52.130;5.598;2023-12-20T03:36:51;38.20;;;5.90;;
23716;SDS011;22094;52.130;5.598;2023-12-20T03:39:17;36.78;;;6.10;;
23716;SDS011;22094;52.130;5.598;2023-12-20T03:41:43;34.50;;;6.50;;
23716;SDS011;22094;52.130;5.598;2023-12-20T03:44:08;41.47;;;6.35;;
23716;SDS011;22094;52.130;5.598;2023-12-20T03:46:34;30.02;;;5.57;;
23716;SDS011;22094;52.130;5.598;2023-12-20T03:49:00;33.03;;;5.85;;
23716;SDS011;22094;52.130;5.598;2023-12-20T03:51:25;40.67;;;6.20;;
23716;SDS011;22094;52.130;5.598;2023-12-20T03:53:51;41.92;;;5.97;;
23716;SDS011;22094;52.130;5.598;2023-12-20T03:56:17;29.25;;;5.53;;
23716;SDS011;22094;52.130;5.598;2023-12-20T03:58:42;43.15;;;5.65;;
23716;SDS011;22094;52.130;5.598;2023-12-20T04:01:11;29.77;;;6.47;;
23716;SDS011;22094;52.130;5.598;2023-12-20T04:03:38;29.25;;;5.88;;
23716;SDS011;22094;52.130;5.598;2023-12-20T04:06:05;37.95;;;5.88;;
23716;SDS011;22094;52.130;5.598;2023-12-20T04:08:31;33.22;;;6.03;;
23716;SDS011;22094;52.130;5.598;2023-12-20T04:10:56;24.13;;;4.82;;
23716;SDS011;22094;52.130;5.598;2023-12-20T04:13:22;37.38;;;6.63;;
23716;SDS011;22094;52.130;5.598;2023-12-20T04:15:48;36.47;;;5.90;;
23716;SDS011;22094;52.130;5.598;2023-12-20T04:18:15;30.80;;;5.28;;
23716;SDS011;22094;52.130;5.598;2023-12-20T04:20:41;36.85;;;6.13;;
23716;SDS011;22094;52.130;5.598;2023-12-20T04:23:06;41.38;;;6.05;;
23716;SDS011;22094;52.130;5.598;2023-12-20T04:25:32;34.40;;;5.65;;
23716;SDS011;22094;52.130;5.598;2023-12-20T04:27:57;37.33;;;5.68;;
23716;SDS011;22094;52.130;5.598;2023-12-20T04:30:23;37.90;;;6.15;;
23716;SDS011;22094;52.130;5.598;2023-12-20T04:32:49;41.63;;;6.43;;
23716;SDS011;22094;52.130;5.598;2023-12-20T04:35:14;33.22;;;5.35;;
23716;SDS011;22094;52.130;5.598;2023-12-20T04:37:40;35.67;;;5.10;;
23716;SDS011;22094;52.130;5.598;2023-12-20T04:40:05;31.88;;;4.72;;
23716;SDS011;22094;52.130;5.598;2023-12-20T04:42:33;44.67;;;6.28;;
23716;SDS011;22094;52.130;5.598;2023-12-20T04:44:58;32.97;;;5.05;;
23716;SDS011;22094;52.130;5.598;2023-12-20T04:47:24;30.92;;;5.30;;
23716;SDS011;22094;52.130;5.598;2023-12-20T04:49:50;31.60;;;4.60;;
23716;SDS011;22094;52.130;5.598;2023-12-20T04:52:15;29.45;;;5.07;;
23716;SDS011;22094;52.130;5.598;2023-12-20T04:54:41;30.73;;;5.53;;
23716;SDS011;22094;52.130;5.598;2023-12-20T04:57:06;31.38;;;4.93;;
23716;SDS011;22094;52.130;5.598;2023-12-20T04:59:32;31.00;;;5.85;;
23716;SDS011;22094;52.130;5.598;2023-12-20T05:01:59;27.23;;;5.53;;
23716;SDS011;22094;52.130;5.598;2023-12-20T05:04:24;34.25;;;6.45;;
23716;SDS011;22094;52.130;5.598;2023-12-20T05:06:50;30.15;;;6.13;;
23716;SDS011;22094;52.130;5.598;2023-12-20T05:09:15;32.47;;;6.38;;
23716;SDS011;22094;52.130;5.598;2023-12-20T05:11:41;24.63;;;5.07;;
23716;SDS011;22094;52.130;5.598;2023-12-20T05:14:06;32.72;;;5.57;;
23716;SDS011;22094;52.130;5.598;2023-12-20T05:16:32;27.48;;;5.70;;
23716;SDS011;22094;52.130;5.598;2023-12-20T05:18:57;37.13;;;5.63;;
23716;SDS011;22094;52.130;5.598;2023-12-20T05:21:25;25.38;;;4.60;;
23716;SDS011;22094;52.130;5.598;2023-12-20T05:23:51;27.15;;;5.35;;
23716;SDS011;22094;52.130;5.598;2023-12-20T05:26:17;31.05;;;5.32;;
23716;SDS011;22094;52.130;5.598;2023-12-20T05:28:42;36.40;;;5.22;;
23716;SDS011;22094;52.130;5.598;2023-12-20T05:31:08;27.90;;;4.88;;
23716;SDS011;22094;52.130;5.598;2023-12-20T05:33:34;26.35;;;5.22;;
23716;SDS011;22094;52.130;5.598;2023-12-20T05:35:59;30.23;;;4.63;;
23716;SDS011;22094;52.130;5.598;2023-12-20T05:38:25;32.28;;;5.28;;
23716;SDS011;22094;52.130;5.598;2023-12-20T05:40:51;26.73;;;4.47;;
23716;SDS011;22094;52.130;5.598;2023-12-20T05:43:16;20.70;;;4.82;;
23716;SDS011;22094;52.130;5.598;2023-12-20T05:45:42;29.05;;;5.13;;
23716;SDS011;22094;52.130;5.598;2023-12-20T05:48:07;27.13;;;5.32;;
23716;SDS011;22094;52.130;5.598;2023-12-20T05:50:39;25.48;;;5.03;;
23716;SDS011;22094;52.130;5.598;2023-12-20T05:53:07;25.42;;;4.75;;
23716;SDS011;22094;52.130;5.598;2023-12-20T05:55:35;36.42;;;6.25;;
23716;SDS011;22094;52.130;5.598;2023-12-20T05:58:01;27.98;;;4.57;;
23716;SDS011;22094;52.130;5.598;2023-12-20T06:00:26;20.25;;;4.53;;
23716;SDS011;22094;52.130;5.598;2023-12-20T06:02:52;20.90;;;4.57;;
23716;SDS011;22094;52.130;5.598;2023-12-20T06:05:17;30.75;;;4.78;;
23716;SDS011;22094;52.130;5.598;2023-12-20T06:07:43;29.67;;;4.32;;
23716;SDS011;22094;52.130;5.598;2023-12-20T06:10:10;26.42;;;4.53;;
23716;SDS011;22094;52.130;5.598;2023-12-20T06:12:35;26.38;;;4.15;;
23716;SDS011;22094;52.130;5.598;2023-12-20T06:15:02;24.88;;;5.13;;
23716;SDS011;22094;52.130;5.598;2023-12-20T06:17:27;20.98;;;4.43;;
23716;SDS011;22094;52.130;5.598;2023-12-20T06:19:55;25.83;;;4.43;;
23716;SDS011;22094;52.130;5.598;2023-12-20T06:22:21;25.10;;;4.50;;
23716;SDS011;22094;52.130;5.598;2023-12-20T06:24:46;25.15;;;4.80;;
23716;SDS011;22094;52.130;5.598;2023-12-20T06:27:12;21.92;;;4.32;;
23716;SDS011;22094;52.130;5.598;2023-12-20T06:29:38;25.35;;;4.25;;
23716;SDS011;22094;52.130;5.598;2023-12-20T06:32:03;28.30;;;4.80;;
23716;SDS011;22094;52.130;5.598;2023-12-20T06:34:29;24.35;;;4.82;;
23716;SDS011;22094;52.130;5.598;2023-12-20T06:36:55;21.60;;;4.32;;
23716;SDS011;22094;52.130;5.598;2023-12-20T06:39:20;21.17;;;3.90;;
23716;SDS011;22094;52.130;5.598;2023-12-20T06:41:46;18.13;;;3.60;;
23716;SDS011;22094;52.130;5.598;2023-12-20T06:44:11;24.27;;;4.38;;
23716;SDS011;22094;52.130;5.598;2023-12-20T06:46:37;18.88;;;4.32;;
23716;SDS011;22094;52.130;5.598;2023-12-20T06:49:02;21.95;;;4.53;;
23716;SDS011;22094;52.130;5.598;2023-12-20T06:51:28;27.70;;;4.45;;
23716;SDS011;22094;52.130;5.598;2023-12-20T06:53:55;16.33;;;3.50;;
23716;SDS011;22094;52.130;5.598;2023-12-20T06:56:21;18.27;;;3.55;;
23716;SDS011;22094;52.130;5.598;2023-12-20T06:58:46;24.55;;;4.30;;
23716;SDS011;22094;52.130;5.598;2023-12-20T07:01:15;21.88;;;3.60;;
23716;SDS011;22094;52.130;5.598;2023-12-20T07:03:41;23.20;;;3.92;;
23716;SDS011;22094;52.130;5.598;2023-12-20T07:06:07;16.95;;;3.92;;
23716;SDS011;22094;52.130;5.598;2023-12-20T07:08:33;22.63;;;4.10;;
23716;SDS011;22094;52.130;5.598;2023-12-20T07:10:59;24.27;;;4.45;;
23716;SDS011;22094;52.130;5.598;2023-12-20T07:13:24;24.42;;;4.55;;
23716;SDS011;22094;52.130;5.598;2023-12-20T07:15:50;23.77;;;3.97;;
23716;SDS011;22094;52.130;5.598;2023-12-20T07:18:16;25.52;;;4.85;;
23716;SDS011;22094;52.130;5.598;2023-12-20T07:20:41;18.92;;;4.00;;
23716;SDS011;22094;52.130;5.598;2023-12-20T07:23:08;23.42;;;4.78;;
23716;SDS011;22094;52.130;5.598;2023-12-20T07:25:33;23.45;;;4.10;;
23716;SDS011;22094;52.130;5.598;2023-12-20T07:27:59;19.13;;;4.03;;
23716;SDS011;22094;52.130;5.598;2023-12-20T07:30:25;22.30;;;4.53;;
23716;SDS011;22094;52.130;5.598;2023-12-20T07:32:50;23.38;;;4.28;;
23716;SDS011;22094;52.130;5.598;2023-12-20T07:35:17;19.25;;;3.72;;
23716;SDS011;22094;52.130;5.598;2023-12-20T07:37:43;25.27;;;4.97;;
23716;SDS011;22094;52.130;5.598;2023-12-20T07:40:09;23.77;;;4.03;;
23716;SDS011;22094;52.130;5.598;2023-12-20T07:42:35;22.88;;;4.43;;
23716;SDS011;22094;52.130;5.598;2023-12-20T07:45:00;22.25;;;3.65;;
23716;SDS011;22094;52.130;5.598;2023-12-20T07:47:26;22.20;;;4.00;;
23716;SDS011;22094;52.130;5.598;2023-12-20T07:49:51;21.60;;;3.97;;
23716;SDS011;22094;52.130;5.598;2023-12-20T07:52:17;22.10;;;4.18;;
23716;SDS011;22094;52.130;5.598;2023-12-20T07:54:44;27.90;;;4.28;;
23716;SDS011;22094;52.130;5.598;2023-12-20T07:57:10;25.30;;;4.55;;
23716;SDS011;22094;52.130;5.598;2023-12-20T07:59:36;24.25;;;4.07;;
23716;SDS011;22094;52.130;5.598;2023-12-20T08:02:01;25.20;;;4.65;;
23716;SDS011;22094;52.130;5.598;2023-12-20T08:04:27;18.70;;;3.60;;
23716;SDS011;22094;52.130;5.598;2023-12-20T08:06:53;19.88;;;3.80;;
23716;SDS011;22094;52.130;5.598;2023-12-20T08:09:18;20.20;;;4.40;;
23716;SDS011;22094;52.130;5.598;2023-12-20T08:11:47;21.90;;;4.07;;
23716;SDS011;22094;52.130;5.598;2023-12-20T08:14:13;18.80;;;4.40;;
23716;SDS011;22094;52.130;5.598;2023-12-20T08:16:39;27.10;;;4.40;;
23716;SDS011;22094;52.130;5.598;2023-12-20T08:19:05;30.40;;;5.28;;
23716;SDS011;22094;52.130;5.598;2023-12-20T08:21:30;20.90;;;4.13;;
23716;SDS011;22094;52.130;5.598;2023-12-20T08:23:56;17.83;;;4.07;;
23716;SDS011;22094;52.130;5.598;2023-12-20T08:26:22;19.65;;;4.38;;
23716;SDS011;22094;52.130;5.598;2023-12-20T08:28:49;19.27;;;4.22;;
23716;SDS011;22094;52.130;5.598;2023-12-20T08:31:18;17.85;;;4.30;;
23716;SDS011;22094;52.130;5.598;2023-12-20T08:33:44;20.20;;;3.88;;
23716;SDS011;22094;52.130;5.598;2023-12-20T08:36:11;23.90;;;4.43;;
23716;SDS011;22094;52.130;5.598;2023-12-20T08:38:37;24.98;;;4.40;;
23716;SDS011;22094;52.130;5.598;2023-12-20T08:41:03;25.50;;;5.28;;
23716;SDS011;22094;52.130;5.598;2023-12-20T08:43:30;20.95;;;4.43;;
23716;SDS011;22094;52.130;5.598;2023-12-20T08:45:59;28.58;;;4.90;;
23716;SDS011;22094;52.130;5.598;2023-12-20T08:48:25;21.73;;;3.90;;
23716;SDS011;22094;52.130;5.598;2023-12-20T08:50:50;22.98;;;4.28;;
23716;SDS011;22094;52.130;5.598;2023-12-20T08:53:17;26.95;;;4.35;;
23716;SDS011;22094;52.130;5.598;2023-12-20T08:55:43;23.02;;;4.25;;
23716;SDS011;22094;52.130;5.598;2023-12-20T08:58:09;21.55;;;4.50;;
23716;SDS011;22094;52.130;5.598;2023-12-20T09:00:35;26.00;;;5.05;;
23716;SDS011;22094;52.130;5.598;2023-12-20T09:03:01;22.17;;;4.35;;
23716;SDS011;22094;52.130;5.598;2023-12-20T09:05:27;23.38;;;4.10;;
23716;SDS011;22094;52.130;5.598;2023-12-20T09:07:53;25.20;;;4.43;;
23716;SDS011;22094;52.130;5.598;2023-12-20T09:10:28;21.67;;;4.38;;
23716;SDS011;22094;52.130;5.598;2023-12-20T09:12:53;29.80;;;4.90;;
23716;SDS011;22094;52.130;5.598;2023-12-20T09:15:22;29.95;;;5.18;;
23716;SDS011;22094;52.130;5.598;2023-12-20T09:17:51;20.85;;;4.25;;
23716;SDS011;22094;52.130;5.598;2023-12-20T09:20:17;23.27;;;4.40;;
23716;SDS011;22094;52.130;5.598;2023-12-20T09:22:42;23.40;;;4.55;;
23716;SDS011;22094;52.130;5.598;2023-12-20T09:25:09;22.52;;;3.85;;
23716;SDS011;22094;52.130;5.598;2023-12-20T09:27:36;26.45;;;4.45;;
23716;SDS011;22094;52.130;5.598;2023-12-20T09:30:02;21.65;;;4.28;;
23716;SDS011;22094;52.130;5.598;2023-12-20T09:32:29;26.88;;;4.50;;
23716;SDS011;22094;52.130;5.598;2023-12-20T09:34:54;18.65;;;3.80;;
23716;SDS011;22094;52.130;5.598;2023-12-20T09:37:20;23.33;;;4.28;;
23716;SDS011;22094;52.130;5.598;2023-12-20T09:39:45;25.00;;;4.97;;
23716;SDS011;22094;52.130;5.598;2023-12-20T09:42:11;30.80;;;4.65;;
23716;SDS011;22094;52.130;5.598;2023-12-20T09:44:42;26.58;;;5.05;;
23716;SDS011;22094;52.130;5.598;2023-12-20T09:47:09;26.70;;;4.88;;
23716;SDS011;22094;52.130;5.598;2023-12-20T09:49:35;24.92;;;5.75;;
23716;SDS011;22094;52.130;5.598;2023-12-20T09:52:01;23.80;;;5.47;;
23716;SDS011;22094;52.130;5.598;2023-12-20T09:54:29;23.23;;;4.65;;
23716;SDS011;22094;52.130;5.598;2023-12-20T09:56:55;21.58;;;4.28;;
23716;SDS011;22094;52.130;5.598;2023-12-20T09:59:21;25.38;;;4.90;;
23716;SDS011;22094;52.130;5.598;2023-12-20T10:01:47;25.48;;;4.32;;
23716;SDS011;22094;52.130;5.598;2023-12-20T10:04:13;21.10;;;4.15;;
23716;SDS011;22094;52.130;5.598;2023-12-20T10:06:41;20.15;;;4.22;;
23716;SDS011;22094;52.130;5.598;2023-12-20T10:09:08;25.08;;;4.30;;
23716;SDS011;22094;52.130;5.598;2023-12-20T10:11:37;20.17;;;4.53;;
23716;SDS011;22094;52.130;5.598;2023-12-20T10:14:04;37.60;;;5.00;;
23716;SDS011;22094;52.130;5.598;2023-12-20T10:16:30;19.52;;;4.68;;
23716;SDS011;22094;52.130;5.598;2023-12-20T10:18:57;22.70;;;4.93;;
23716;SDS011;22094;52.130;5.598;2023-12-20T10:21:24;20.42;;;5.85;;
23716;SDS011;22094;52.130;5.598;2023-12-20T10:23:54;24.42;;;4.88;;
23716;SDS011;22094;52.130;5.598;2023-12-20T10:26:20;20.17;;;4.57;;
23716;SDS011;22094;52.130;5.598;2023-12-20T10:28:54;22.73;;;5.32;;
23716;SDS011;22094;52.130;5.598;2023-12-20T10:33:56;20.75;;;4.47;;
23716;SDS011;22094;52.130;5.598;2023-12-20T10:36:24;25.60;;;4.82;;
23716;SDS011;22094;52.130;5.598;2023-12-20T10:38:52;24.38;;;4.85;;
23716;SDS011;22094;52.130;5.598;2023-12-20T10:41:19;21.60;;;4.18;;
23716;SDS011;22094;52.130;5.598;2023-12-20T10:44:03;22.08;;;4.90;;
23716;SDS011;22094;52.130;5.598;2023-12-20T10:46:33;18.75;;;4.72;;
23716;SDS011;22094;52.130;5.598;2023-12-20T10:48:59;17.92;;;4.45;;
23716;SDS011;22094;52.130;5.598;2023-12-20T10:51:27;25.35;;;4.28;;
23716;SDS011;22094;52.130;5.598;2023-12-20T10:53:55;19.05;;;4.38;;
23716;SDS011;22094;52.130;5.598;2023-12-20T10:56:21;21.13;;;4.50;;
23716;SDS011;22094;52.130;5.598;2023-12-20T10:58:48;22.60;;;4.43;;
23716;SDS011;22094;52.130;5.598;2023-12-20T11:01:18;18.15;;;4.28;;
23716;SDS011;22094;52.130;5.598;2023-12-20T11:03:48;19.05;;;4.20;;
23716;SDS011;22094;52.130;5.598;2023-12-20T11:06:21;16.80;;;3.88;;
23716;SDS011;22094;52.130;5.598;2023-12-20T11:11:46;18.45;;;3.55;;
23716;SDS011;22094;52.130;5.598;2023-12-20T11:17:10;16.02;;;3.67;;
23716;SDS011;22094;52.130;5.598;2023-12-20T11:22:37;15.32;;;3.15;;
23716;SDS011;22094;52.130;5.598;2023-12-20T11:25:09;16.20;;;3.53;;
23716;SDS011;22094;52.130;5.598;2023-12-20T11:27:36;16.58;;;3.22;;
23716;SDS011;22094;52.130;5.598;2023-12-20T11:30:06;16.55;;;3.45;;
23716;SDS011;22094;52.130;5.598;2023-12-20T11:32:34;20.55;;;3.47;;
23716;SDS011;22094;52.130;5.598;2023-12-20T11:35:01;13.70;;;3.35;;
23716;SDS011;22094;52.130;5.598;2023-12-20T11:37:43;19.40;;;3.72;;
23716;SDS011;22094;52.130;5.598;2023-12-20T11:40:13;17.92;;;3.88;;
23716;SDS011;22094;52.130;5.598;2023-12-20T11:42:40;18.75;;;3.97;;
23716;SDS011;22094;52.130;5.598;2023-12-20T11:45:10;12.90;;;2.80;;
23716;SDS011;22094;52.130;5.598;2023-12-20T11:47:36;15.82;;;3.30;;
23716;SDS011;22094;52.130;5.598;2023-12-20T11:50:02;15.70;;;3.33;;
23716;SDS011;22094;52.130;5.598;2023-12-20T11:52:29;21.23;;;4.07;;
23716;SDS011;22094;52.130;5.598;2023-12-20T11:54:56;15.15;;;3.45;;
23716;SDS011;22094;52.130;5.598;2023-12-20T11:57:22;22.63;;;5.10;;
23716;SDS011;22094;52.130;5.598;2023-12-20T11:59:48;18.63;;;4.22;;
23716;SDS011;22094;52.130;5.598;2023-12-20T12:02:13;22.08;;;4.72;;
23716;SDS011;22094;52.130;5.598;2023-12-20T12:04:43;16.27;;;3.53;;
23716;SDS011;22094;52.130;5.598;2023-12-20T12:07:08;20.30;;;4.80;;
23716;SDS011;22094;52.130;5.598;2023-12-20T12:09:34;15.50;;;3.55;;
23716;SDS011;22094;52.130;5.598;2023-12-20T12:12:00;17.10;;;3.85;;
23716;SDS011;22094;52.130;5.598;2023-12-20T12:14:26;14.48;;;3.45;;
23716;SDS011;22094;52.130;5.598;2023-12-20T12:16:52;15.35;;;3.78;;
23716;SDS011;22094;52.130;5.598;2023-12-20T12:19:21;15.23;;;4.03;;
23716;SDS011;22094;52.130;5.598;2023-12-20T12:21:48;16.55;;;3.22;;
23716;SDS011;22094;52.130;5.598;2023-12-20T12:24:14;14.77;;;3.67;;
23716;SDS011;22094;52.130;5.598;2023-12-20T12:26:40;14.02;;;3.33;;
23716;SDS011;22094;52.130;5.598;2023-12-20T12:29:08;13.40;;;3.42;;
23716;SDS011;22094;52.130;5.598;2023-12-20T12:31:34;15.27;;;3.20;;
23716;SDS011;22094;52.130;5.598;2023-12-20T12:34:01;15.73;;;3.25;;
23716;SDS011;22094;52.130;5.598;2023-12-20T12:36:27;20.08;;;3.30;;
23716;SDS011;22094;52.130;5.598;2023-12-20T12:38:53;12.73;;;3.50;;
23716;SDS011;22094;52.130;5.598;2023-12-20T12:41:22;17.02;;;3.50;;
23716;SDS011;22094;52.130;5.598;2023-12-20T12:43:48;16.88;;;3.40;;
23716;SDS011;22094;52.130;5.598;2023-12-20T12:46:14;15.48;;;3.20;;
23716;SDS011;22094;52.130;5.598;2023-12-20T12:48:40;14.27;;;3.08;;
23716;SDS011;22094;52.130;5.598;2023-12-20T12:51:05;15.43;;;3.50;;
23716;SDS011;22094;52.130;5.598;2023-12-20T12:53:32;17.15;;;3.75;;
23716;SDS011;22094;52.130;5.598;2023-12-20T12:55:57;14.05;;;3.35;;
23716;SDS011;22094;52.130;5.598;2023-12-20T12:58:23;17.45;;;3.55;;
23716;SDS011;22094;52.130;5.598;2023-12-20T13:00:51;17.55;;;3.45;;
23716;SDS011;22094;52.130;5.598;2023-12-20T13:03:16;12.57;;;3.15;;
23716;SDS011;22094;52.130;5.598;2023-12-20T13:05:42;14.60;;;3.05;;
23716;SDS011;22094;52.130;5.598;2023-12-20T13:08:07;17.60;;;3.53;;
23716;SDS011;22094;52.130;5.598;2023-12-20T13:10:34;14.57;;;3.67;;
23716;SDS011;22094;52.130;5.598;2023-12-20T13:13:00;10.65;;;3.40;;
23716;SDS011;22094;52.130;5.598;2023-12-20T13:15:29;13.30;;;3.47;;
23716;SDS011;22094;52.130;5.598;2023-12-20T13:17:55;12.13;;;3.20;;
23716;SDS011;22094;52.130;5.598;2023-12-20T13:20:21;15.45;;;3.42;;
23716;SDS011;22094;52.130;5.598;2023-12-20T13:22:47;15.25;;;3.35;;
23716;SDS011;22094;52.130;5.598;2023-12-20T13:25:13;15.98;;;3.38;;
23716;SDS011;22094;52.130;5.598;2023-12-20T13:27:42;18.48;;;3.92;;
23716;SDS011;22094;52.130;5.598;2023-12-20T13:30:08;16.40;;;3.75;;
23716;SDS011;22094;52.130;5.598;2023-12-20T13:32:34;17.83;;;3.50;;
23716;SDS011;22094;52.130;5.598;2023-12-20T13:35:00;12.60;;;3.80;;
23716;SDS011;22094;52.130;5.598;2023-12-20T13:37:26;14.70;;;3.25;;
23716;SDS011;22094;52.130;5.598;2023-12-20T13:39:51;18.42;;;3.78;;
23716;SDS011;22094;52.130;5.598;2023-12-20T13:42:17;18.27;;;3.85;;
23716;SDS011;22094;52.130;5.598;2023-12-20T13:44:42;15.90;;;3.58;;
23716;SDS011;22094;52.130;5.598;2023-12-20T13:47:09;16.73;;;3.75;;
23716;SDS011;22094;52.130;5.598;2023-12-20T13:49:34;17.45;;;3.75;;
23716;SDS011;22094;52.130;5.598;2023-12-20T13:52:00;15.63;;;3.35;;
23716;SDS011;22094;52.130;5.598;2023-12-20T13:54:26;18.63;;;4.13;;
23716;SDS011;22094;52.130;5.598;2023-12-20T13:56:51;17.35;;;4.25;;
23716;SDS011;22094;52.130;5.598;2023-12-20T13:59:17;18.75;;;3.63;;
23716;SDS011;22094;52.130;5.598;2023-12-20T14:01:43;17.83;;;3.97;;
23716;SDS011;22094;52.130;5.598;2023-12-20T14:04:09;15.80;;;3.15;;
23716;SDS011;22094;52.130;5.598;2023-12-20T14:06:36;12.45;;;3.25;;
23716;SDS011;22094;52.130;5.598;2023-12-20T14:09:01;17.42;;;3.47;;
23716;SDS011;22094;52.130;5.598;2023-12-20T14:11:28;16.30;;;3.10;;
23716;SDS011;22094;52.130;5.598;2023-12-20T14:13:54;15.25;;;3.47;;
23716;SDS011;22094;52.130;5.598;2023-12-20T14:16:23;14.60;;;2.97;;
23716;SDS011;22094;52.130;5.598;2023-12-20T14:18:49;15.32;;;3.95;;
23716;SDS011;22094;52.130;5.598;2023-12-20T14:21:16;16.13;;;3.25;;
23716;SDS011;22094;52.130;5.598;2023-12-20T14:23:42;11.98;;;3.13;;
23716;SDS011;22094;52.130;5.598;2023-12-20T14:26:08;15.13;;;3.58;;
23716;SDS011;22094;52.130;5.598;2023-12-20T14:28:39;15.63;;;3.47;;
23716;SDS011;22094;52.130;5.598;2023-12-20T14:31:06;17.58;;;3.30;;
23716;SDS011;22094;52.130;5.598;2023-12-20T14:33:31;14.55;;;3.10;;
23716;SDS011;22094;52.130;5.598;2023-12-20T14:35:57;13.07;;;2.92;;
23716;SDS011;22094;52.130;5.598;2023-12-20T14:38:22;18.02;;;3.53;;
23716;SDS011;22094;52.130;5.598;2023-12-20T14:40:48;17.95;;;3.53;;